sensor_id;sensor_type;location;lat;lon;timestamp;P1;P2;P0
70915;PMS5003;58557;50.982;-3.222;2023-08-07T00:01:02;6;6;
70915;PMS5003;58557;50.982;-3.222;2023-08-07T00:03:27;8;8;
70915;PMS5003;58557;50.982;-3.222;2023-08-07T00:05:50;5;5;
70915;PMS5003;58557;50.982;-3.222;2023-08-07T00:08:14;5;5;
70915;PMS5003;58557;50.982;-3.222;2023-08-07T00:10:39;9;6;
70915;PMS5003;58557;50.982;-3.222;2023-08-07T00:13:10;7;5;
70915;PMS5003;58557;50.982;-3.222;2023-08-07T00:15:31;7;7;
70915;PMS5003;58557;50.982;-3.222;2023-08-07T00:17:57;7;7;
70915;PMS5003;58557;50.982;-3.222;2023-08-07T00:20:27;4;4;
70915;PMS5003;58557;50.982;-3.222;2023-08-07T00:22:50;7;6;
70915;PMS5003;58557;50.982;-3.222;2023-08-07T00:25:19;8;5;
70915;PMS5003;58557;50.982;-3.222;2023-08-07T00:27:39;7;4;
70915;PMS5003;58557;50.982;-3.222;2023-08-07T00:30:05;4;4;
70915;PMS5003;58557;50.982;-3.222;2023-08-07T00:32:31;8;5;
70915;PMS5003;58557;50.982;-3.222;2023-08-07T00:34:56;9;6;
70915;PMS5003;58557;50.982;-3.222;2023-08-07T00:37:22;8;5;
70915;PMS5003;58557;50.982;-3.222;2023-08-07T00:39:53;7;6;
70915;PMS5003;58557;50.982;-3.222;2023-08-07T00:42:13;6;6;
70915;PMS5003;58557;50.982;-3.222;2023-08-07T00:44:44;5;5;
70915;PMS5003;58557;50.982;-3.222;2023-08-07T00:47:10;7;6;
70915;PMS5003;58557;50.982;-3.222;2023-08-07T00:49:31;7;6;
70915;PMS5003;58557;50.982;-3.222;2023-08-07T00:52:01;10;10;
70915;PMS5003;58557;50.982;-3.222;2023-08-07T00:54:27;8;6;
70915;PMS5003;58557;50.982;-3.222;2023-08-07T00:56:48;12;9;
70915;PMS5003;58557;50.982;-3.222;2023-08-07T00:59:18;6;6;
70915;PMS5003;58557;50.982;-3.222;2023-08-07T01:01:44;5;5;
70915;PMS5003;58557;50.982;-3.222;2023-08-07T01:04:05;6;6;
70915;PMS5003;58557;50.982;-3.222;2023-08-07T01:06:30;7;7;
70915;PMS5003;58557;50.982;-3.222;2023-08-07T01:08:56;8;6;
70915;PMS5003;58557;50.982;-3.222;2023-08-07T01:11:22;6;5;
70915;PMS5003;58557;50.982;-3.222;2023-08-07T01:13:50;7;7;
70915;PMS5003;58557;50.982;-3.222;2023-08-07T01:16:13;8;7;
70915;PMS5003;58557;50.982;-3.222;2023-08-07T01:18:38;7;6;
70915;PMS5003;58557;50.982;-3.222;2023-08-07T01:21:03;10;7;
70915;PMS5003;58557;50.982;-3.222;2023-08-07T01:23:29;7;4;
70915;PMS5003;58557;50.982;-3.222;2023-08-07T01:25:59;9;8;
70915;PMS5003;58557;50.982;-3.222;2023-08-07T01:28:26;5;5;
70915;PMS5003;58557;50.982;-3.222;2023-08-07T01:30:48;9;8;
70915;PMS5003;58557;50.982;-3.222;2023-08-07T01:33:13;7;7;
70915;PMS5003;58557;50.982;-3.222;2023-08-07T01:35:40;6;6;
70915;PMS5003;58557;50.982;-3.222;2023-08-07T01:38:03;6;5;
70915;PMS5003;58557;50.982;-3.222;2023-08-07T01:40:34;6;6;
70915;PMS5003;58557;50.982;-3.222;2023-08-07T01:42:54;14;9;
70915;PMS5003;58557;50.982;-3.222;2023-08-07T01:45:23;10;10;
70915;PMS5003;58557;50.982;-3.222;2023-08-07T01:47:45;7;6;
70915;PMS5003;58557;50.982;-3.222;2023-08-07T01:50:11;7;5;
70915;PMS5003;58557;50.982;-3.222;2023-08-07T01:52:36;9;9;
70915;PMS5003;58557;50.982;-3.222;2023-08-07T01:55:02;6;4;
70915;PMS5003;58557;50.982;-3.222;2023-08-07T01:57:27;7;6;
70915;PMS5003;58557;50.982;-3.222;2023-08-07T01:59:53;14;9;
70915;PMS5003;58557;50.982;-3.222;2023-08-07T02:02:23;10;7;
70915;PMS5003;58557;50.982;-3.222;2023-08-07T02:04:43;8;8;
70915;PMS5003;58557;50.982;-3.222;2023-08-07T02:07:14;6;6;
70915;PMS5003;58557;50.982;-3.222;2023-08-07T02:09:34;10;8;
70915;PMS5003;58557;50.982;-3.222;2023-08-07T02:12:00;13;13;
70915;PMS5003;58557;50.982;-3.222;2023-08-07T02:16:51;8;6;
70915;PMS5003;58557;50.982;-3.222;2023-08-07T02:19:16;8;8;
70915;PMS5003;58557;50.982;-3.222;2023-08-07T02:21:47;10;10;
70915;PMS5003;58557;50.982;-3.222;2023-08-07T02:24:07;7;7;
70915;PMS5003;58557;50.982;-3.222;2023-08-07T02:26:33;10;7;
70915;PMS5003;58557;50.982;-3.222;2023-08-07T02:28:58;7;5;
70915;PMS5003;58557;50.982;-3.222;2023-08-07T02:31:28;15;13;
70915;PMS5003;58557;50.982;-3.222;2023-08-07T02:33:53;7;6;
70915;PMS5003;58557;50.982;-3.222;2023-08-07T02:36:14;7;7;
70915;PMS5003;58557;50.982;-3.222;2023-08-07T02:38:45;9;9;
70915;PMS5003;58557;50.982;-3.222;2023-08-07T02:41:10;6;6;
70915;PMS5003;58557;50.982;-3.222;2023-08-07T02:43:31;9;9;
70915;PMS5003;58557;50.982;-3.222;2023-08-07T02:45:56;10;7;
70915;PMS5003;58557;50.982;-3.222;2023-08-07T02:48:27;8;8;
70915;PMS5003;58557;50.982;-3.222;2023-08-07T02:50:48;8;7;
70915;PMS5003;58557;50.982;-3.222;2023-08-07T02:53:13;6;6;
70915;PMS5003;58557;50.982;-3.222;2023-08-07T02:55:38;10;10;
70915;PMS5003;58557;50.982;-3.222;2023-08-07T02:58:09;6;6;
70915;PMS5003;58557;50.982;-3.222;2023-08-07T03:00:29;9;7;
70915;PMS5003;58557;50.982;-3.222;2023-08-07T03:03:00;6;6;
70915;PMS5003;58557;50.982;-3.222;2023-08-07T03:05:26;6;6;
70915;PMS5003;58557;50.982;-3.222;2023-08-07T03:07:46;7;7;
70915;PMS5003;58557;50.982;-3.222;2023-08-07T03:10:12;9;9;
70915;PMS5003;58557;50.982;-3.222;2023-08-07T03:12:38;9;7;
70915;PMS5003;58557;50.982;-3.222;2023-08-07T03:15:04;9;9;
70915;PMS5003;58557;50.982;-3.222;2023-08-07T03:17:29;10;7;
70915;PMS5003;58557;50.982;-3.222;2023-08-07T03:19:54;6;6;
70915;PMS5003;58557;50.982;-3.222;2023-08-07T03:22:25;5;4;
70915;PMS5003;58557;50.982;-3.222;2023-08-07T03:24:46;9;8;
70915;PMS5003;58557;50.982;-3.222;2023-08-07T03:27:17;8;8;
70915;PMS5003;58557;50.982;-3.222;2023-08-07T03:29:42;9;8;
70915;PMS5003;58557;50.982;-3.222;2023-08-07T03:32:08;10;8;
70915;PMS5003;58557;50.982;-3.222;2023-08-07T03:34:34;9;7;
70915;PMS5003;58557;50.982;-3.222;2023-08-07T03:36:54;8;6;
70915;PMS5003;58557;50.982;-3.222;2023-08-07T03:39:20;8;8;
70915;PMS5003;58557;50.982;-3.222;2023-08-07T03:41:46;7;6;
70915;PMS5003;58557;50.982;-3.222;2023-08-07T03:44:16;11;11;
70915;PMS5003;58557;50.982;-3.222;2023-08-07T03:46:42;9;8;
70915;PMS5003;58557;50.982;-3.222;2023-08-07T03:51:33;9;9;
70915;PMS5003;58557;50.982;-3.222;2023-08-07T03:53:53;11;9;
70915;PMS5003;58557;50.982;-3.222;2023-08-07T03:56:19;18;10;
70915;PMS5003;58557;50.982;-3.222;2023-08-07T03:58:44;8;8;
70915;PMS5003;58557;50.982;-3.222;2023-08-07T04:01:15;11;10;
70915;PMS5003;58557;50.982;-3.222;2023-08-07T04:03:36;13;8;
70915;PMS5003;58557;50.982;-3.222;2023-08-07T04:06:01;8;8;
70915;PMS5003;58557;50.982;-3.222;2023-08-07T04:08:27;8;7;
70915;PMS5003;58557;50.982;-3.222;2023-08-07T04:10:58;10;9;
70915;PMS5003;58557;50.982;-3.222;2023-08-07T04:13:23;13;9;
70915;PMS5003;58557;50.982;-3.222;2023-08-07T04:15:43;8;8;
70915;PMS5003;58557;50.982;-3.222;2023-08-07T04:18:09;10;10;
70915;PMS5003;58557;50.982;-3.222;2023-08-07T04:20:35;14;13;
70915;PMS5003;58557;50.982;-3.222;2023-08-07T04:23:00;14;9;
70915;PMS5003;58557;50.982;-3.222;2023-08-07T04:25:31;10;9;
70915;PMS5003;58557;50.982;-3.222;2023-08-07T04:27:57;9;9;
70915;PMS5003;58557;50.982;-3.222;2023-08-07T04:30:18;12;12;
70915;PMS5003;58557;50.982;-3.222;2023-08-07T04:32:43;12;9;
70915;PMS5003;58557;50.982;-3.222;2023-08-07T04:35:14;14;12;
70915;PMS5003;58557;50.982;-3.222;2023-08-07T04:37:40;8;8;
70915;PMS5003;58557;50.982;-3.222;2023-08-07T04:40:01;14;12;
70915;PMS5003;58557;50.982;-3.222;2023-08-07T04:42:26;13;9;
70915;PMS5003;58557;50.982;-3.222;2023-08-07T04:44:52;9;9;
70915;PMS5003;58557;50.982;-3.222;2023-08-07T04:47:17;14;10;
70915;PMS5003;58557;50.982;-3.222;2023-08-07T04:49:48;13;12;
70915;PMS5003;58557;50.982;-3.222;2023-08-07T04:52:13;10;9;
70915;PMS5003;58557;50.982;-3.222;2023-08-07T04:54:39;12;11;
70915;PMS5003;58557;50.982;-3.222;2023-08-07T04:57:00;9;9;
70915;PMS5003;58557;50.982;-3.222;2023-08-07T04:59:31;14;12;
70915;PMS5003;58557;50.982;-3.222;2023-08-07T05:01:51;13;13;
70915;PMS5003;58557;50.982;-3.222;2023-08-07T05:04:22;12;12;
70915;PMS5003;58557;50.982;-3.222;2023-08-07T05:06:42;15;10;
70915;PMS5003;58557;50.982;-3.222;2023-08-07T05:09:08;10;9;
70915;PMS5003;58557;50.982;-3.222;2023-08-07T05:11:34;9;7;
70915;PMS5003;58557;50.982;-3.222;2023-08-07T05:14:05;9;9;
70915;PMS5003;58557;50.982;-3.222;2023-08-07T05:16:25;8;8;
70915;PMS5003;58557;50.982;-3.222;2023-08-07T05:18:51;13;12;
70915;PMS5003;58557;50.982;-3.222;2023-08-07T05:21:17;14;12;
70915;PMS5003;58557;50.982;-3.222;2023-08-07T05:23:42;15;15;
70915;PMS5003;58557;50.982;-3.222;2023-08-07T05:26:07;12;10;
70915;PMS5003;58557;50.982;-3.222;2023-08-07T05:28:32;9;9;
70915;PMS5003;58557;50.982;-3.222;2023-08-07T05:31:03;16;14;
70915;PMS5003;58557;50.982;-3.222;2023-08-07T05:33:23;9;9;
70915;PMS5003;58557;50.982;-3.222;2023-08-07T05:35:54;10;8;
70915;PMS5003;58557;50.982;-3.222;2023-08-07T05:38:15;10;9;
70915;PMS5003;58557;50.982;-3.222;2023-08-07T05:40:46;9;9;
70915;PMS5003;58557;50.982;-3.222;2023-08-07T05:43:06;10;10;
70915;PMS5003;58557;50.982;-3.222;2023-08-07T05:45:37;9;8;
70915;PMS5003;58557;50.982;-3.222;2023-08-07T05:47:57;16;15;
70915;PMS5003;58557;50.982;-3.222;2023-08-07T05:50:22;8;8;
70915;PMS5003;58557;50.982;-3.222;2023-08-07T05:52:48;6;6;
70915;PMS5003;58557;50.982;-3.222;2023-08-07T05:55:14;11;8;
70915;PMS5003;58557;50.982;-3.222;2023-08-07T05:57:39;13;11;
70915;PMS5003;58557;50.982;-3.222;2023-08-07T06:00:05;10;7;
70915;PMS5003;58557;50.982;-3.222;2023-08-07T06:02:30;12;8;
70915;PMS5003;58557;50.982;-3.222;2023-08-07T06:05:01;8;8;
70915;PMS5003;58557;50.982;-3.222;2023-08-07T06:07:22;10;8;
70915;PMS5003;58557;50.982;-3.222;2023-08-07T06:09:48;14;10;
70915;PMS5003;58557;50.982;-3.222;2023-08-07T06:12:13;9;7;
70915;PMS5003;58557;50.982;-3.222;2023-08-07T06:14:44;8;7;
70915;PMS5003;58557;50.982;-3.222;2023-08-07T06:17:09;8;8;
70915;PMS5003;58557;50.982;-3.222;2023-08-07T06:19:36;7;7;
70915;PMS5003;58557;50.982;-3.222;2023-08-07T06:22:01;8;7;
70915;PMS5003;58557;50.982;-3.222;2023-08-07T06:24:22;8;8;
70915;PMS5003;58557;50.982;-3.222;2023-08-07T06:26:47;7;7;
70915;PMS5003;58557;50.982;-3.222;2023-08-07T06:29:13;6;6;
70915;PMS5003;58557;50.982;-3.222;2023-08-07T06:31:43;6;6;
70915;PMS5003;58557;50.982;-3.222;2023-08-07T06:34:04;10;8;
70915;PMS5003;58557;50.982;-3.222;2023-08-07T06:36:35;8;7;
70915;PMS5003;58557;50.982;-3.222;2023-08-07T06:39:00;10;8;
70915;PMS5003;58557;50.982;-3.222;2023-08-07T06:41:21;11;11;
70915;PMS5003;58557;50.982;-3.222;2023-08-07T06:43:51;6;5;
70915;PMS5003;58557;50.982;-3.222;2023-08-07T06:46:12;7;7;
70915;PMS5003;58557;50.982;-3.222;2023-08-07T06:48:43;8;8;
70915;PMS5003;58557;50.982;-3.222;2023-08-07T06:51:03;9;9;
70915;PMS5003;58557;50.982;-3.222;2023-08-07T06:53:29;6;6;
70915;PMS5003;58557;50.982;-3.222;2023-08-07T06:55:59;6;6;
70915;PMS5003;58557;50.982;-3.222;2023-08-07T06:58:20;11;7;
70915;PMS5003;58557;50.982;-3.222;2023-08-07T07:00:47;8;6;
70915;PMS5003;58557;50.982;-3.222;2023-08-07T07:03:17;8;7;
70915;PMS5003;58557;50.982;-3.222;2023-08-07T07:05:37;12;7;
70915;PMS5003;58557;50.982;-3.222;2023-08-07T07:08:03;9;7;
70915;PMS5003;58557;50.982;-3.222;2023-08-07T07:10:34;7;7;
70915;PMS5003;58557;50.982;-3.222;2023-08-07T07:12:59;5;5;
70915;PMS5003;58557;50.982;-3.222;2023-08-07T07:15:20;7;5;
70915;PMS5003;58557;50.982;-3.222;2023-08-07T07:17:46;4;4;
70915;PMS5003;58557;50.982;-3.222;2023-08-07T07:20:11;6;6;
70915;PMS5003;58557;50.982;-3.222;2023-08-07T07:22:37;7;7;
70915;PMS5003;58557;50.982;-3.222;2023-08-07T07:25:08;12;7;
70915;PMS5003;58557;50.982;-3.222;2023-08-07T07:27:33;6;6;
70915;PMS5003;58557;50.982;-3.222;2023-08-07T07:29:54;8;7;
70915;PMS5003;58557;50.982;-3.222;2023-08-07T07:32:25;6;6;
70915;PMS5003;58557;50.982;-3.222;2023-08-07T07:34:50;6;6;
70915;PMS5003;58557;50.982;-3.222;2023-08-07T07:37:11;7;7;
70915;PMS5003;58557;50.982;-3.222;2023-08-07T07:39:42;7;7;
70915;PMS5003;58557;50.982;-3.222;2023-08-07T07:42:07;9;7;
70915;PMS5003;58557;50.982;-3.222;2023-08-07T07:44:28;8;7;
70915;PMS5003;58557;50.982;-3.222;2023-08-07T07:46:59;6;6;
70915;PMS5003;58557;50.982;-3.222;2023-08-07T07:49:24;6;6;
70915;PMS5003;58557;50.982;-3.222;2023-08-07T07:51:50;4;4;
70915;PMS5003;58557;50.982;-3.222;2023-08-07T07:54:15;5;5;
70915;PMS5003;58557;50.982;-3.222;2023-08-07T07:56:36;5;5;
70915;PMS5003;58557;50.982;-3.222;2023-08-07T07:59:02;6;6;
70915;PMS5003;58557;50.982;-3.222;2023-08-07T08:01:32;3;3;
70915;PMS5003;58557;50.982;-3.222;2023-08-07T08:03:58;6;6;
70915;PMS5003;58557;50.982;-3.222;2023-08-07T08:06:18;5;5;
70915;PMS5003;58557;50.982;-3.222;2023-08-07T08:08:44;4;4;
70915;PMS5003;58557;50.982;-3.222;2023-08-07T08:11:10;6;5;
70915;PMS5003;58557;50.982;-3.222;2023-08-07T08:13:35;4;4;
70915;PMS5003;58557;50.982;-3.222;2023-08-07T08:16:01;4;4;
70915;PMS5003;58557;50.982;-3.222;2023-08-07T08:18:26;5;5;
70915;PMS5003;58557;50.982;-3.222;2023-08-07T08:20:56;5;4;
70915;PMS5003;58557;50.982;-3.222;2023-08-07T08:23:17;8;7;
70915;PMS5003;58557;50.982;-3.222;2023-08-07T08:25:47;7;7;
70915;PMS5003;58557;50.982;-3.222;2023-08-07T08:28:13;6;6;
70915;PMS5003;58557;50.982;-3.222;2023-08-07T08:30:38;9;8;
70915;PMS5003;58557;50.982;-3.222;2023-08-07T08:33:04;3;3;
70915;PMS5003;58557;50.982;-3.222;2023-08-07T08:35:24;5;4;
70915;PMS5003;58557;50.982;-3.222;2023-08-07T08:37:50;6;6;
70915;PMS5003;58557;50.982;-3.222;2023-08-07T08:40:20;6;6;
70915;PMS5003;58557;50.982;-3.222;2023-08-07T08:42:43;7;4;
70915;PMS5003;58557;50.982;-3.222;2023-08-07T08:45:07;6;6;
70915;PMS5003;58557;50.982;-3.222;2023-08-07T08:47:32;6;4;
70915;PMS5003;58557;50.982;-3.222;2023-08-07T08:50:01;6;3;
70915;PMS5003;58557;50.982;-3.222;2023-08-07T08:52:23;4;3;
70915;PMS5003;58557;50.982;-3.222;2023-08-07T08:54:49;3;3;
70915;PMS5003;58557;50.982;-3.222;2023-08-07T08:57:14;4;3;
70915;PMS5003;58557;50.982;-3.222;2023-08-07T08:59:40;4;4;
70915;PMS5003;58557;50.982;-3.222;2023-08-07T09:02:05;4;3;
70915;PMS5003;58557;50.982;-3.222;2023-08-07T09:04:31;5;4;
70915;PMS5003;58557;50.982;-3.222;2023-08-07T09:06:56;7;5;
70915;PMS5003;58557;50.982;-3.222;2023-08-07T09:09:21;3;3;
70915;PMS5003;58557;50.982;-3.222;2023-08-07T09:11:47;4;3;
70915;PMS5003;58557;50.982;-3.222;2023-08-07T09:14:14;3;3;
70915;PMS5003;58557;50.982;-3.222;2023-08-07T09:16:38;3;2;
70915;PMS5003;58557;50.982;-3.222;2023-08-07T09:19:04;3;2;
70915;PMS5003;58557;50.982;-3.222;2023-08-07T09:21:29;4;3;
70915;PMS5003;58557;50.982;-3.222;2023-08-07T09:23:55;3;3;
70915;PMS5003;58557;50.982;-3.222;2023-08-07T09:26:21;1;1;
70915;PMS5003;58557;50.982;-3.222;2023-08-07T09:28:46;2;2;
70915;PMS5003;58557;50.982;-3.222;2023-08-07T09:31:13;3;3;
70915;PMS5003;58557;50.982;-3.222;2023-08-07T09:33:37;2;2;
70915;PMS5003;58557;50.982;-3.222;2023-08-07T09:36:02;1;1;
70915;PMS5003;58557;50.982;-3.222;2023-08-07T09:38:28;2;2;
70915;PMS5003;58557;50.982;-3.222;2023-08-07T09:40:53;2;2;
70915;PMS5003;58557;50.982;-3.222;2023-08-07T09:43:22;2;2;
70915;PMS5003;58557;50.982;-3.222;2023-08-07T09:45:44;1;1;
70915;PMS5003;58557;50.982;-3.222;2023-08-07T09:48:09;4;3;
70915;PMS5003;58557;50.982;-3.222;2023-08-07T09:50:35;2;2;
70915;PMS5003;58557;50.982;-3.222;2023-08-07T09:53:00;2;2;
70915;PMS5003;58557;50.982;-3.222;2023-08-07T09:55:26;0;0;
70915;PMS5003;58557;50.982;-3.222;2023-08-07T09:57:52;3;3;
70915;PMS5003;58557;50.982;-3.222;2023-08-07T10:00:17;1;0;
70915;PMS5003;58557;50.982;-3.222;2023-08-07T10:02:43;4;2;
70915;PMS5003;58557;50.982;-3.222;2023-08-07T10:05:09;3;3;
70915;PMS5003;58557;50.982;-3.222;2023-08-07T10:07:33;2;2;
70915;PMS5003;58557;50.982;-3.222;2023-08-07T10:09:59;3;3;
70915;PMS5003;58557;50.982;-3.222;2023-08-07T10:12:25;3;2;
70915;PMS5003;58557;50.982;-3.222;2023-08-07T10:14:50;4;2;
70915;PMS5003;58557;50.982;-3.222;2023-08-07T10:17:16;4;2;
70915;PMS5003;58557;50.982;-3.222;2023-08-07T10:19:41;3;3;
70915;PMS5003;58557;50.982;-3.222;2023-08-07T10:22:06;2;2;
70915;PMS5003;58557;50.982;-3.222;2023-08-07T10:24:32;3;2;
70915;PMS5003;58557;50.982;-3.222;2023-08-07T10:26:58;4;4;
70915;PMS5003;58557;50.982;-3.222;2023-08-07T10:29:24;5;2;
70915;PMS5003;58557;50.982;-3.222;2023-08-07T10:31:49;6;5;
70915;PMS5003;58557;50.982;-3.222;2023-08-07T10:34:15;2;2;
70915;PMS5003;58557;50.982;-3.222;2023-08-07T10:36:40;2;2;
70915;PMS5003;58557;50.982;-3.222;2023-08-07T10:39:06;1;1;
70915;PMS5003;58557;50.982;-3.222;2023-08-07T10:41:37;2;2;
70915;PMS5003;58557;50.982;-3.222;2023-08-07T10:43:57;2;2;
70915;PMS5003;58557;50.982;-3.222;2023-08-07T10:46:22;1;1;
70915;PMS5003;58557;50.982;-3.222;2023-08-07T10:48:54;3;3;
70915;PMS5003;58557;50.982;-3.222;2023-08-07T10:51:14;4;3;
70915;PMS5003;58557;50.982;-3.222;2023-08-07T10:53:40;3;3;
70915;PMS5003;58557;50.982;-3.222;2023-08-07T10:56:06;2;2;
70915;PMS5003;58557;50.982;-3.222;2023-08-07T10:58:30;4;2;
70915;PMS5003;58557;50.982;-3.222;2023-08-07T11:03:26;3;3;
70915;PMS5003;58557;50.982;-3.222;2023-08-07T11:05:46;2;2;
70915;PMS5003;58557;50.982;-3.222;2023-08-07T11:08:12;1;1;
70915;PMS5003;58557;50.982;-3.222;2023-08-07T11:10:37;1;1;
70915;PMS5003;58557;50.982;-3.222;2023-08-07T11:13:03;4;2;
70915;PMS5003;58557;50.982;-3.222;2023-08-07T11:15:28;7;4;
70915;PMS5003;58557;50.982;-3.222;2023-08-07T11:17:53;3;3;
70915;PMS5003;58557;50.982;-3.222;2023-08-07T11:20:19;2;2;
70915;PMS5003;58557;50.982;-3.222;2023-08-07T11:22:44;3;3;
70915;PMS5003;58557;50.982;-3.222;2023-08-07T11:25:10;4;2;
70915;PMS5003;58557;50.982;-3.222;2023-08-07T11:27:35;2;2;
70915;PMS5003;58557;50.982;-3.222;2023-08-07T11:30:01;2;2;
70915;PMS5003;58557;50.982;-3.222;2023-08-07T11:32:27;4;2;
70915;PMS5003;58557;50.982;-3.222;2023-08-07T11:34:52;2;2;
70915;PMS5003;58557;50.982;-3.222;2023-08-07T11:37:18;2;2;
70915;PMS5003;58557;50.982;-3.222;2023-08-07T11:39:43;1;1;
70915;PMS5003;58557;50.982;-3.222;2023-08-07T11:42:09;5;2;
70915;PMS5003;58557;50.982;-3.222;2023-08-07T11:44:34;3;3;
70915;PMS5003;58557;50.982;-3.222;2023-08-07T11:47:00;2;2;
70915;PMS5003;58557;50.982;-3.222;2023-08-07T11:49:25;2;2;
70915;PMS5003;58557;50.982;-3.222;2023-08-07T11:51:51;6;3;
70915;PMS5003;58557;50.982;-3.222;2023-08-07T11:54:16;4;3;
70915;PMS5003;58557;50.982;-3.222;2023-08-07T11:56:42;5;4;
70915;PMS5003;58557;50.982;-3.222;2023-08-07T11:59:08;3;2;
70915;PMS5003;58557;50.982;-3.222;2023-08-07T12:01:36;5;3;
70915;PMS5003;58557;50.982;-3.222;2023-08-07T12:06:25;4;3;
70915;PMS5003;58557;50.982;-3.222;2023-08-07T12:08:50;4;4;
70915;PMS5003;58557;50.982;-3.222;2023-08-07T12:11:15;3;3;
70915;PMS5003;58557;50.982;-3.222;2023-08-07T12:13:42;2;2;
70915;PMS5003;58557;50.982;-3.222;2023-08-07T12:16:07;2;1;
70915;PMS5003;58557;50.982;-3.222;2023-08-07T12:18:32;4;2;
70915;PMS5003;58557;50.982;-3.222;2023-08-07T12:20:58;2;2;
70915;PMS5003;58557;50.982;-3.222;2023-08-07T12:23:23;2;2;
70915;PMS5003;58557;50.982;-3.222;2023-08-07T12:25:49;3;2;
70915;PMS5003;58557;50.982;-3.222;2023-08-07T12:28:15;2;2;
70915;PMS5003;58557;50.982;-3.222;2023-08-07T12:30:42;3;3;
70915;PMS5003;58557;50.982;-3.222;2023-08-07T12:33:06;4;2;
70915;PMS5003;58557;50.982;-3.222;2023-08-07T12:35:31;3;2;
70915;PMS5003;58557;50.982;-3.222;2023-08-07T12:37:57;2;2;
70915;PMS5003;58557;50.982;-3.222;2023-08-07T12:40:22;3;3;
70915;PMS5003;58557;50.982;-3.222;2023-08-07T12:42:48;2;2;
70915;PMS5003;58557;50.982;-3.222;2023-08-07T12:45:13;6;3;
70915;PMS5003;58557;50.982;-3.222;2023-08-07T12:47:39;4;3;
70915;PMS5003;58557;50.982;-3.222;2023-08-07T12:50:05;2;2;
70915;PMS5003;58557;50.982;-3.222;2023-08-07T12:52:30;4;2;
70915;PMS5003;58557;50.982;-3.222;2023-08-07T12:54:56;1;1;
70915;PMS5003;58557;50.982;-3.222;2023-08-07T12:57:21;2;2;
70915;PMS5003;58557;50.982;-3.222;2023-08-07T12:59:47;3;3;
70915;PMS5003;58557;50.982;-3.222;2023-08-07T13:02:12;2;2;
70915;PMS5003;58557;50.982;-3.222;2023-08-07T13:04:38;3;3;
70915;PMS5003;58557;50.982;-3.222;2023-08-07T13:07:04;4;4;
70915;PMS5003;58557;50.982;-3.222;2023-08-07T13:09:29;5;4;
70915;PMS5003;58557;50.982;-3.222;2023-08-07T13:11:55;4;4;
70915;PMS5003;58557;50.982;-3.222;2023-08-07T13:14:20;2;2;
70915;PMS5003;58557;50.982;-3.222;2023-08-07T13:16:46;2;1;
70915;PMS5003;58557;50.982;-3.222;2023-08-07T13:19:11;3;1;
70915;PMS5003;58557;50.982;-3.222;2023-08-07T13:21:37;7;3;
70915;PMS5003;58557;50.982;-3.222;2023-08-07T13:24:02;5;3;
70915;PMS5003;58557;50.982;-3.222;2023-08-07T13:26:28;2;2;
70915;PMS5003;58557;50.982;-3.222;2023-08-07T13:28:53;3;3;
70915;PMS5003;58557;50.982;-3.222;2023-08-07T13:31:19;5;3;
70915;PMS5003;58557;50.982;-3.222;2023-08-07T13:33:45;3;3;
70915;PMS5003;58557;50.982;-3.222;2023-08-07T13:36:10;3;3;
70915;PMS5003;58557;50.982;-3.222;2023-08-07T13:38:36;5;3;
70915;PMS5003;58557;50.982;-3.222;2023-08-07T13:41:01;1;1;
70915;PMS5003;58557;50.982;-3.222;2023-08-07T13:43:27;2;2;
70915;PMS5003;58557;50.982;-3.222;2023-08-07T13:45:52;3;3;
70915;PMS5003;58557;50.982;-3.222;2023-08-07T13:48:18;3;3;
70915;PMS5003;58557;50.982;-3.222;2023-08-07T13:50:43;1;1;
70915;PMS5003;58557;50.982;-3.222;2023-08-07T13:53:09;3;1;
70915;PMS5003;58557;50.982;-3.222;2023-08-07T13:55:35;6;5;
70915;PMS5003;58557;50.982;-3.222;2023-08-07T13:58:00;3;3;
70915;PMS5003;58557;50.982;-3.222;2023-08-07T14:00:26;2;2;
70915;PMS5003;58557;50.982;-3.222;2023-08-07T14:02:51;3;3;
70915;PMS5003;58557;50.982;-3.222;2023-08-07T14:05:17;2;2;
70915;PMS5003;58557;50.982;-3.222;2023-08-07T14:07:42;1;1;
70915;PMS5003;58557;50.982;-3.222;2023-08-07T14:10:08;1;1;
70915;PMS5003;58557;50.982;-3.222;2023-08-07T14:12:33;2;2;
70915;PMS5003;58557;50.982;-3.222;2023-08-07T14:14:59;2;2;
70915;PMS5003;58557;50.982;-3.222;2023-08-07T14:17:24;3;3;
70915;PMS5003;58557;50.982;-3.222;2023-08-07T14:19:50;4;4;
70915;PMS5003;58557;50.982;-3.222;2023-08-07T14:22:15;4;3;
70915;PMS5003;58557;50.982;-3.222;2023-08-07T14:24:41;3;3;
70915;PMS5003;58557;50.982;-3.222;2023-08-07T14:27:07;3;3;
70915;PMS5003;58557;50.982;-3.222;2023-08-07T14:29:32;3;3;
70915;PMS5003;58557;50.982;-3.222;2023-08-07T14:31:58;6;3;
70915;PMS5003;58557;50.982;-3.222;2023-08-07T14:34:23;5;2;
70915;PMS5003;58557;50.982;-3.222;2023-08-07T14:36:49;3;3;
70915;PMS5003;58557;50.982;-3.222;2023-08-07T14:39:14;2;2;
70915;PMS5003;58557;50.982;-3.222;2023-08-07T14:41:40;2;2;
70915;PMS5003;58557;50.982;-3.222;2023-08-07T14:44:05;5;3;
70915;PMS5003;58557;50.982;-3.222;2023-08-07T14:46:31;4;3;
70915;PMS5003;58557;50.982;-3.222;2023-08-07T14:48:56;4;3;
70915;PMS5003;58557;50.982;-3.222;2023-08-07T14:51:22;9;5;
70915;PMS5003;58557;50.982;-3.222;2023-08-07T14:53:48;3;3;
70915;PMS5003;58557;50.982;-3.222;2023-08-07T14:56:13;4;3;
70915;PMS5003;58557;50.982;-3.222;2023-08-07T14:58:38;8;8;
70915;PMS5003;58557;50.982;-3.222;2023-08-07T15:01:04;3;3;
70915;PMS5003;58557;50.982;-3.222;2023-08-07T15:03:29;5;3;
70915;PMS5003;58557;50.982;-3.222;2023-08-07T15:05:55;1;1;
70915;PMS5003;58557;50.982;-3.222;2023-08-07T15:08:21;4;2;
70915;PMS5003;58557;50.982;-3.222;2023-08-07T15:10:46;2;2;
70915;PMS5003;58557;50.982;-3.222;2023-08-07T15:13:11;3;2;
70915;PMS5003;58557;50.982;-3.222;2023-08-07T15:15:37;4;2;
70915;PMS5003;58557;50.982;-3.222;2023-08-07T15:18:02;3;3;
70915;PMS5003;58557;50.982;-3.222;2023-08-07T15:20:28;5;2;
70915;PMS5003;58557;50.982;-3.222;2023-08-07T15:22:54;5;2;
70915;PMS5003;58557;50.982;-3.222;2023-08-07T15:25:19;3;3;
70915;PMS5003;58557;50.982;-3.222;2023-08-07T15:27:45;4;4;
70915;PMS5003;58557;50.982;-3.222;2023-08-07T15:30:11;2;1;
70915;PMS5003;58557;50.982;-3.222;2023-08-07T15:32:36;3;3;
70915;PMS5003;58557;50.982;-3.222;2023-08-07T15:35:02;2;2;
70915;PMS5003;58557;50.982;-3.222;2023-08-07T15:37:27;4;2;
70915;PMS5003;58557;50.982;-3.222;2023-08-07T15:39:53;6;6;
70915;PMS5003;58557;50.982;-3.222;2023-08-07T15:42:18;4;3;
70915;PMS5003;58557;50.982;-3.222;2023-08-07T15:44:44;3;2;
70915;PMS5003;58557;50.982;-3.222;2023-08-07T15:47:10;3;3;
70915;PMS5003;58557;50.982;-3.222;2023-08-07T15:49:35;2;2;
70915;PMS5003;58557;50.982;-3.222;2023-08-07T15:52:00;2;2;
70915;PMS5003;58557;50.982;-3.222;2023-08-07T15:54:26;2;2;
70915;PMS5003;58557;50.982;-3.222;2023-08-07T15:56:51;3;1;
70915;PMS5003;58557;50.982;-3.222;2023-08-07T15:59:17;4;4;
70915;PMS5003;58557;50.982;-3.222;2023-08-07T16:01:42;5;2;
70915;PMS5003;58557;50.982;-3.222;2023-08-07T16:04:09;3;3;
70915;PMS5003;58557;50.982;-3.222;2023-08-07T16:06:33;3;3;
70915;PMS5003;58557;50.982;-3.222;2023-08-07T16:08:59;3;3;
70915;PMS5003;58557;50.982;-3.222;2023-08-07T16:11:24;2;2;
70915;PMS5003;58557;50.982;-3.222;2023-08-07T16:13:50;3;3;
70915;PMS5003;58557;50.982;-3.222;2023-08-07T16:16:16;2;2;
70915;PMS5003;58557;50.982;-3.222;2023-08-07T16:18:41;4;4;
70915;PMS5003;58557;50.982;-3.222;2023-08-07T16:21:07;6;3;
70915;PMS5003;58557;50.982;-3.222;2023-08-07T16:23:32;4;4;
70915;PMS5003;58557;50.982;-3.222;2023-08-07T16:25:57;2;2;
70915;PMS5003;58557;50.982;-3.222;2023-08-07T16:28:23;6;4;